createdAt,value
2023-03-07T00:02:23.464Z,5.50
2023-03-07T00:07:12.896Z,5.70
2023-03-07T00:09:37.928Z,5.70
2023-03-07T00:12:02.540Z,5.80
2023-03-07T00:14:26.899Z,6.00
2023-03-07T00:16:52.178Z,5.90
2023-03-07T00:19:18.693Z,5.70
2023-03-07T00:21:44.677Z,5.90
2023-03-07T00:24:11.246Z,5.90
2023-03-07T00:26:39.544Z,6.00
2023-03-07T00:29:03.916Z,5.90
2023-03-07T00:31:28.293Z,6.00
2023-03-07T00:33:52.870Z,6.00
2023-03-07T00:36:19.775Z,6.10
2023-03-07T00:38:45.882Z,6.20
2023-03-07T00:41:12.988Z,6.00
2023-03-07T00:43:38.048Z,5.80
2023-03-07T00:46:03.907Z,5.80
2023-03-07T00:48:28.892Z,5.70
2023-03-07T00:50:54.335Z,5.60
2023-03-07T00:53:19.480Z,5.50
2023-03-07T00:55:58.744Z,5.30
2023-03-07T00:58:23.628Z,5.40
2023-03-07T01:00:48.419Z,5.50
2023-03-07T01:03:12.962Z,5.50
2023-03-07T01:05:40.321Z,5.60
2023-03-07T01:08:04.755Z,5.50
2023-03-07T01:10:29.529Z,5.50
2023-03-07T01:12:55.527Z,5.50
2023-03-07T01:15:20.406Z,5.40
2023-03-07T01:17:44.734Z,5.30
2023-03-07T01:20:10.836Z,5.10
2023-03-07T01:22:35.457Z,5.00
2023-03-07T01:25:00.124Z,5.10
2023-03-07T01:27:26.046Z,5.10
2023-03-07T01:29:52.194Z,5.00
2023-03-07T01:32:16.616Z,4.90
2023-03-07T01:34:41.874Z,4.60
2023-03-07T01:37:07.082Z,4.50
2023-03-07T01:39:31.844Z,4.40
2023-03-07T01:42:00.831Z,4.40
2023-03-07T01:44:27.591Z,4.30
2023-03-07T01:46:55.332Z,4.40
2023-03-07T01:49:29.934Z,4.50
2023-03-07T01:52:02.697Z,4.60
2023-03-07T01:54:27.923Z,4.70
2023-03-07T01:56:53.456Z,4.70
2023-03-07T01:59:22.808Z,4.70
2023-03-07T02:01:47.478Z,4.70
2023-03-07T02:04:19.575Z,4.70
2023-03-07T02:06:44.121Z,4.70
2023-03-07T02:09:13.399Z,4.50
2023-03-07T02:11:37.879Z,4.40
2023-03-07T02:14:22.243Z,4.40
2023-03-07T02:16:49.696Z,4.50
2023-03-07T02:19:30.200Z,4.50
2023-03-07T02:22:05.917Z,4.60
2023-03-07T02:24:35.832Z,4.50
2023-03-07T02:27:01.665Z,4.50
2023-03-07T02:29:26.262Z,4.60
2023-03-07T02:31:50.729Z,4.60
2023-03-07T02:34:23.739Z,4.60
2023-03-07T02:37:00.013Z,4.60
2023-03-07T02:39:30.089Z,4.50
2023-03-07T02:41:57.681Z,4.50
2023-03-07T02:44:31.966Z,4.50
2023-03-07T02:46:56.346Z,4.60
2023-03-07T02:49:25.116Z,4.60
2023-03-07T02:51:49.752Z,4.60
2023-03-07T02:54:14.206Z,4.60
2023-03-07T02:56:38.853Z,4.60
2023-03-07T02:59:03.708Z,4.60
2023-03-07T03:01:30.077Z,4.50
2023-03-07T03:03:56.100Z,4.50
2023-03-07T03:06:20.466Z,4.50
2023-03-07T03:08:44.796Z,4.40
2023-03-07T03:11:09.485Z,4.40
2023-03-07T03:13:34.090Z,4.50
2023-03-07T03:15:59.946Z,4.50
2023-03-07T03:18:28.568Z,4.50
2023-03-07T03:20:52.976Z,4.40
2023-03-07T03:23:17.524Z,4.40
2023-03-07T03:25:42.225Z,4.40
2023-03-07T03:28:07.215Z,4.40
2023-03-07T03:30:32.522Z,4.40
2023-03-07T03:32:58.563Z,4.40
2023-03-07T03:35:26.518Z,4.30
2023-03-07T03:37:53.019Z,4.20
2023-03-07T03:40:17.758Z,4.20
2023-03-07T03:42:45.792Z,4.10
2023-03-07T03:45:14.907Z,4.00
2023-03-07T03:47:39.451Z,4.00
2023-03-07T03:50:04.080Z,4.00
2023-03-07T03:52:30.214Z,4.00
2023-03-07T03:54:54.662Z,4.00
2023-03-07T03:57:20.688Z,4.00
2023-03-07T03:59:45.194Z,4.00
2023-03-07T04:02:11.558Z,4.00
2023-03-07T04:04:36.738Z,4.00
2023-03-07T04:07:01.783Z,4.00
2023-03-07T04:09:28.188Z,4.10
2023-03-07T04:11:52.655Z,4.20
2023-03-07T04:14:17.042Z,4.30
2023-03-07T04:16:43.056Z,4.30
2023-03-07T04:19:08.670Z,4.30
2023-03-07T04:21:33.082Z,4.30
2023-03-07T04:23:58.566Z,4.30
2023-03-07T04:26:28.273Z,4.30
2023-03-07T04:28:52.855Z,4.40
2023-03-07T04:31:27.827Z,4.40
2023-03-07T04:33:55.712Z,4.30
2023-03-07T04:36:20.818Z,4.40
2023-03-07T04:38:45.605Z,4.40
2023-03-07T04:41:12.032Z,4.40
2023-03-07T04:43:37.926Z,4.50
2023-03-07T04:46:03.813Z,4.50
2023-03-07T04:48:28.258Z,4.60
2023-03-07T04:50:53.391Z,4.70
2023-03-07T04:53:20.772Z,4.80
2023-03-07T04:55:45.616Z,4.90
2023-03-07T04:58:13.100Z,4.80
2023-03-07T05:00:40.359Z,4.60
2023-03-07T05:03:05.009Z,4.60
2023-03-07T05:05:31.183Z,4.70
2023-03-07T05:07:55.537Z,4.70
2023-03-07T05:10:20.521Z,4.70
2023-03-07T05:12:45.361Z,4.80
2023-03-07T05:15:11.188Z,4.80
2023-03-07T05:17:38.449Z,4.90
2023-03-07T05:20:04.016Z,5.00
2023-03-07T05:22:28.672Z,5.10
2023-03-07T05:24:53.549Z,5.20
2023-03-07T05:27:18.377Z,5.30
2023-03-07T05:29:43.899Z,5.30
2023-03-07T05:32:08.639Z,5.20
2023-03-07T05:34:34.615Z,5.10
2023-03-07T05:36:59.255Z,5.20
2023-03-07T05:39:27.529Z,5.30
2023-03-07T05:41:52.020Z,5.20
2023-03-07T05:44:16.657Z,5.30
2023-03-07T05:46:41.914Z,5.60
2023-03-07T05:49:06.359Z,5.70
2023-03-07T05:51:32.173Z,5.70
2023-03-07T05:53:58.845Z,5.60
2023-03-07T05:56:24.194Z,5.60
2023-03-07T05:58:51.081Z,5.70
2023-03-07T06:01:15.631Z,5.80
2023-03-07T06:03:40.177Z,6.00
2023-03-07T06:06:05.567Z,6.40
2023-03-07T06:08:31.754Z,6.70
2023-03-07T06:10:56.545Z,7.20
2023-03-07T06:13:24.161Z,7.70
2023-03-07T06:15:51.458Z,7.90
2023-03-07T06:18:17.108Z,7.90
2023-03-07T06:20:42.673Z,7.80
2023-03-07T06:23:07.403Z,7.60
2023-03-07T06:25:34.002Z,7.60
2023-03-07T06:28:01.171Z,7.30
2023-03-07T06:30:29.541Z,7.40
2023-03-07T06:32:54.524Z,7.50
2023-03-07T06:35:20.220Z,7.60
2023-03-07T06:37:48.653Z,7.60
2023-03-07T06:40:14.383Z,7.90
2023-03-07T06:42:42.361Z,8.00
2023-03-07T06:45:10.491Z,8.20
2023-03-07T06:47:35.586Z,8.30
2023-03-07T06:50:03.577Z,8.50
2023-03-07T06:52:30.196Z,9.00
2023-03-07T06:54:58.068Z,9.30
2023-03-07T06:57:23.665Z,9.80
2023-03-07T06:59:50.315Z,10.10
2023-03-07T07:02:16.688Z,10.70
2023-03-07T07:04:41.512Z,11.40
2023-03-07T07:07:07.590Z,11.80
2023-03-07T07:09:32.535Z,12.20
2023-03-07T07:11:58.062Z,12.50
2023-03-07T07:14:23.395Z,13.10
2023-03-07T07:16:49.903Z,13.30
2023-03-07T07:19:14.311Z,13.50
2023-03-07T07:21:39.349Z,13.70
2023-03-07T07:24:04.881Z,14.00
2023-03-07T07:26:30.243Z,14.30
2023-03-07T07:28:56.823Z,14.70
2023-03-07T07:31:21.247Z,14.90
2023-03-07T07:33:47.640Z,15.10
2023-03-07T07:36:13.765Z,15.00
2023-03-07T07:38:38.537Z,14.50
2023-03-07T07:41:03.365Z,14.30
2023-03-07T07:43:27.684Z,14.40
2023-03-07T07:46:01.049Z,14.60
2023-03-07T07:48:26.194Z,14.80
2023-03-07T07:50:52.589Z,15.00
2023-03-07T07:53:18.181Z,15.00
2023-03-07T07:55:44.136Z,14.80
2023-03-07T07:58:08.663Z,14.70
2023-03-07T08:00:33.455Z,14.60
2023-03-07T08:02:58.070Z,14.70
2023-03-07T08:05:23.094Z,14.60
2023-03-07T08:07:50.395Z,14.30
2023-03-07T08:10:16.578Z,14.50
2023-03-07T08:12:41.029Z,14.50
2023-03-07T08:15:05.882Z,14.40
2023-03-07T08:17:30.671Z,14.80
2023-03-07T08:19:54.925Z,15.20
2023-03-07T08:22:19.759Z,15.40
2023-03-07T08:24:47.841Z,15.60
2023-03-07T08:27:12.507Z,15.60
2023-03-07T08:29:36.850Z,15.70
2023-03-07T08:32:01.316Z,15.80
2023-03-07T08:34:25.648Z,16.10
2023-03-07T08:36:50.005Z,16.10
2023-03-07T08:39:15.725Z,16.10
2023-03-07T08:41:42.000Z,16.10
2023-03-07T08:44:06.589Z,16.20
2023-03-07T08:46:31.088Z,16.60
2023-03-07T08:48:55.668Z,16.80
2023-03-07T08:51:20.061Z,16.60
2023-03-07T08:53:46.211Z,16.70
2023-03-07T08:56:12.006Z,16.70
2023-03-07T08:58:38.721Z,16.60
2023-03-07T09:01:03.612Z,16.80
2023-03-07T09:03:28.098Z,16.80
2023-03-07T09:05:52.566Z,17.00
2023-03-07T09:08:16.946Z,17.00
2023-03-07T09:10:42.669Z,16.60
2023-03-07T09:13:07.076Z,16.80
2023-03-07T09:15:32.828Z,16.80
2023-03-07T09:17:57.684Z,16.70
2023-03-07T09:20:22.255Z,16.60
2023-03-07T09:22:46.943Z,16.70
2023-03-07T09:25:12.528Z,16.80
2023-03-07T09:27:36.928Z,16.90
2023-03-07T09:30:01.335Z,16.80
2023-03-07T09:32:27.456Z,16.60
2023-03-07T09:34:53.537Z,16.60
2023-03-07T09:37:18.893Z,16.60
2023-03-07T09:39:44.279Z,16.40
2023-03-07T09:42:18.184Z,16.50
2023-03-07T09:45:21.110Z,16.50
2023-03-07T09:48:25.699Z,16.50
2023-03-07T09:50:55.076Z,16.70
2023-03-07T09:53:25.452Z,16.90
2023-03-07T09:55:51.708Z,16.80
2023-03-07T09:58:20.123Z,16.70
2023-03-07T10:00:46.107Z,16.80
2023-03-07T10:03:21.656Z,17.00
2023-03-07T10:05:50.437Z,17.00
2023-03-07T10:08:18.154Z,17.10
2023-03-07T10:10:45.238Z,17.00
2023-03-07T10:13:28.105Z,17.00
2023-03-07T10:15:57.658Z,17.10
2023-03-07T10:18:41.420Z,17.10
2023-03-07T10:21:16.199Z,17.40
2023-03-07T10:24:24.242Z,17.40
2023-03-07T10:27:07.005Z,17.50
2023-03-07T10:29:44.709Z,17.50
2023-03-07T10:32:23.359Z,17.50
2023-03-07T10:35:01.468Z,17.50
2023-03-07T10:37:38.422Z,17.60
2023-03-07T10:40:04.952Z,17.50
2023-03-07T10:47:09.217Z,17.20
2023-03-07T10:49:53.505Z,17.30
2023-03-07T10:52:31.259Z,17.50
2023-03-07T10:55:36.487Z,17.60
2023-03-07T10:58:15.774Z,17.60
2023-03-07T11:00:44.544Z,17.80
2023-03-07T11:03:26.803Z,18.00
2023-03-07T11:05:54.162Z,17.80
2023-03-07T11:08:33.971Z,17.70
2023-03-07T11:10:59.130Z,17.80
2023-03-07T11:13:24.844Z,18.00
2023-03-07T11:15:49.838Z,18.00
2023-03-07T11:18:28.015Z,17.90
2023-03-07T11:20:53.519Z,17.80
2023-03-07T11:23:23.470Z,17.80
2023-03-07T11:25:49.385Z,17.80
2023-03-07T11:28:32.347Z,17.70
2023-03-07T11:31:08.112Z,17.80
2023-03-07T11:33:59.646Z,17.90
2023-03-07T11:36:33.758Z,18.00
2023-03-07T11:39:24.253Z,17.90
2023-03-07T11:42:04.787Z,18.10
2023-03-07T11:44:39.088Z,17.90
2023-03-07T11:47:35.886Z,18.00
2023-03-07T11:50:15.431Z,17.80
2023-03-07T11:53:03.913Z,17.90
2023-03-07T11:55:35.876Z,18.10
2023-03-07T11:58:18.818Z,18.10
2023-03-07T12:00:54.591Z,18.30
2023-03-07T12:04:03.601Z,18.30
2023-03-07T12:06:36.492Z,18.20
2023-03-07T12:09:39.155Z,18.20
2023-03-07T12:12:32.353Z,18.30
2023-03-07T12:15:49.878Z,18.10
2023-03-07T12:18:53.265Z,17.90
2023-03-07T12:25:38.034Z,17.50
2023-03-07T12:29:13.334Z,17.50
2023-03-07T12:32:06.489Z,17.30
2023-03-07T12:34:58.335Z,17.40
2023-03-07T12:37:27.185Z,17.60
2023-03-07T12:39:57.723Z,17.40
2023-03-07T12:43:07.123Z,17.50
2023-03-07T12:45:45.098Z,17.60
2023-03-07T12:48:26.183Z,17.80
2023-03-07T12:51:10.645Z,17.80
2023-03-07T12:53:39.674Z,17.80
2023-03-07T12:56:23.054Z,17.90
2023-03-07T12:59:43.224Z,17.90
2023-03-07T13:05:59.691Z,17.70
2023-03-07T13:08:57.960Z,17.40
2023-03-07T13:11:28.073Z,17.20
2023-03-07T13:14:18.586Z,17.10
2023-03-07T13:17:03.470Z,17.10
2023-03-07T13:20:42.792Z,17.20
2023-03-07T13:24:29.408Z,17.30
2023-03-07T13:27:07.644Z,17.60
2023-03-07T13:30:38.531Z,17.50
2023-03-07T13:33:25.648Z,17.30
2023-03-07T13:35:59.084Z,17.20
2023-03-07T13:38:34.879Z,17.30
2023-03-07T13:41:03.279Z,17.20
2023-03-07T13:43:59.814Z,17.10
2023-03-07T13:46:49.061Z,17.30
2023-03-07T13:49:46.517Z,17.30
2023-03-07T13:52:35.370Z,17.40
2023-03-07T13:55:02.677Z,17.40
2023-03-07T13:57:41.861Z,17.40
2023-03-07T14:00:25.925Z,17.40
2023-03-07T14:02:51.345Z,17.30
2023-03-07T14:05:16.307Z,17.30
2023-03-07T14:07:43.096Z,17.20
2023-03-07T14:10:22.873Z,17.20
2023-03-07T14:13:17.332Z,17.10
2023-03-07T14:16:17.322Z,16.90
2023-03-07T14:19:06.832Z,16.90
2023-03-07T14:25:54.776Z,17.00
2023-03-07T14:29:29.535Z,17.00
2023-03-07T14:33:11.332Z,16.90
2023-03-07T14:44:13.698Z,16.80
2023-03-07T14:49:28.540Z,16.60
2023-03-07T14:52:46.435Z,16.60
2023-03-07T14:59:54.311Z,16.50
2023-03-07T15:03:01.418Z,16.50
2023-03-07T15:05:50.064Z,16.60
2023-03-07T15:12:29.991Z,16.40
2023-03-07T15:18:36.722Z,16.20
2023-03-07T15:21:12.582Z,16.10
2023-03-07T15:23:44.383Z,16.10
2023-03-07T15:26:21.261Z,16.10
2023-03-07T15:28:49.796Z,16.00
2023-03-07T15:31:15.415Z,16.00
2023-03-07T15:33:40.158Z,15.90
2023-03-07T15:36:17.863Z,15.90
2023-03-07T15:38:44.529Z,15.90
2023-03-07T15:41:29.202Z,15.90
2023-03-07T15:44:16.809Z,15.80
2023-03-07T15:46:44.456Z,15.80
2023-03-07T15:49:24.534Z,15.60
2023-03-07T15:51:53.298Z,15.50
2023-03-07T15:54:25.919Z,15.40
2023-03-07T15:56:56.611Z,15.30
2023-03-07T15:59:26.452Z,15.20
2023-03-07T16:01:51.225Z,15.20
2023-03-07T16:04:37.890Z,15.10
2023-03-07T16:07:04.234Z,15.10
2023-03-07T16:09:28.627Z,15.10
2023-03-07T16:11:53.184Z,15.00
2023-03-07T16:14:23.820Z,15.00
2023-03-07T16:16:48.723Z,14.90
2023-03-07T16:19:13.203Z,14.80
2023-03-07T16:21:37.646Z,14.70
2023-03-07T16:24:03.389Z,14.60
2023-03-07T16:26:29.115Z,14.60
2023-03-07T16:28:55.406Z,14.60
2023-03-07T16:31:20.679Z,14.50
2023-03-07T16:33:46.403Z,14.40
2023-03-07T16:36:12.521Z,14.40
2023-03-07T16:38:37.020Z,14.40
2023-03-07T16:41:04.531Z,14.30
2023-03-07T16:43:35.019Z,14.30
2023-03-07T16:45:59.814Z,14.20
2023-03-07T16:48:24.276Z,14.20
2023-03-07T16:50:48.834Z,14.20
2023-03-07T16:53:13.255Z,14.20
2023-03-07T16:55:39.572Z,14.20
2023-03-07T16:58:07.263Z,14.20
2023-03-07T17:00:33.174Z,14.20
2023-03-07T17:03:02.194Z,14.10
2023-03-07T17:05:28.089Z,14.10
2023-03-07T17:07:53.120Z,14.00
2023-03-07T17:10:18.046Z,14.00
2023-03-07T17:12:45.996Z,13.90
2023-03-07T17:15:16.460Z,13.80
2023-03-07T17:17:40.945Z,13.70
2023-03-07T17:20:08.304Z,13.60
2023-03-07T17:22:32.794Z,13.60
2023-03-07T17:24:57.254Z,13.50
2023-03-07T17:27:21.982Z,13.40
2023-03-07T17:29:50.119Z,13.40
2023-03-07T17:32:16.324Z,13.30
2023-03-07T17:34:41.113Z,13.30
2023-03-07T17:37:06.771Z,13.30
2023-03-07T17:39:32.319Z,13.30
2023-03-07T17:41:57.140Z,13.20
2023-03-07T17:44:21.500Z,13.20
2023-03-07T17:46:46.268Z,13.10
2023-03-07T17:49:12.112Z,13.10
2023-03-07T17:51:36.626Z,13.10
2023-03-07T17:54:01.255Z,13.00
2023-03-07T17:56:25.946Z,13.10
2023-03-07T17:58:50.554Z,13.00
2023-03-07T18:01:15.335Z,13.10
2023-03-07T18:03:40.364Z,13.10
2023-03-07T18:06:06.669Z,13.00
2023-03-07T18:08:31.020Z,12.90
2023-03-07T18:10:55.520Z,12.80
2023-03-07T18:13:21.851Z,12.80
2023-03-07T18:15:47.179Z,12.70
2023-03-07T18:18:11.557Z,12.70
2023-03-07T18:20:35.971Z,12.70
2023-03-07T18:23:01.892Z,12.60
2023-03-07T18:25:26.253Z,12.60
2023-03-07T18:27:50.650Z,12.60
2023-03-07T18:30:16.000Z,12.50
2023-03-07T18:32:40.356Z,12.40
2023-03-07T18:35:05.402Z,12.40
2023-03-07T18:37:30.269Z,12.40
2023-03-07T18:39:56.078Z,12.30
2023-03-07T18:42:20.533Z,12.30
2023-03-07T18:44:45.245Z,12.30
2023-03-07T18:47:10.707Z,12.30
2023-03-07T18:49:35.641Z,12.30
2023-03-07T18:51:59.913Z,12.30
2023-03-07T18:54:24.335Z,12.20
2023-03-07T18:56:50.052Z,12.20
2023-03-07T18:59:14.829Z,12.20
2023-03-07T19:01:39.746Z,12.20
2023-03-07T19:04:05.407Z,12.20
2023-03-07T19:06:33.799Z,12.20
2023-03-07T19:08:58.295Z,12.20
2023-03-07T19:11:22.697Z,12.30
2023-03-07T19:13:51.393Z,12.30
2023-03-07T19:16:17.935Z,12.30
2023-03-07T19:18:43.295Z,12.20
2023-03-07T19:21:08.337Z,12.20
2023-03-07T19:23:32.625Z,12.20
2023-03-07T19:25:57.080Z,12.20
2023-03-07T19:28:21.452Z,12.20
2023-03-07T19:30:47.317Z,12.10
2023-03-07T19:33:12.212Z,12.10
2023-03-07T19:35:36.578Z,12.10
2023-03-07T19:38:02.410Z,12.10
2023-03-07T19:40:28.463Z,12.00
2023-03-07T19:42:52.834Z,12.00
2023-03-07T19:45:17.276Z,12.00
2023-03-07T19:47:42.998Z,12.00
2023-03-07T19:50:08.269Z,12.00
2023-03-07T19:52:32.622Z,12.00
2023-03-07T19:54:57.012Z,12.00
2023-03-07T19:57:21.540Z,11.90
2023-03-07T19:59:53.701Z,11.90
2023-03-07T20:02:18.143Z,11.80
2023-03-07T20:04:44.211Z,11.90
2023-03-07T20:07:09.437Z,11.80
2023-03-07T20:09:33.839Z,11.80
2023-03-07T20:11:58.275Z,11.70
2023-03-07T20:14:22.910Z,11.70
2023-03-07T20:16:47.345Z,11.60
2023-03-07T20:19:14.732Z,11.50
2023-03-07T20:21:44.216Z,11.50
2023-03-07T20:24:09.487Z,11.50
2023-03-07T20:26:36.295Z,11.50
2023-03-07T20:29:01.432Z,11.40
2023-03-07T20:31:26.230Z,11.40
2023-03-07T20:33:51.741Z,11.40
2023-03-07T20:36:18.445Z,11.30
2023-03-07T20:38:44.470Z,11.30
2023-03-07T20:41:11.478Z,11.30
2023-03-07T20:43:35.888Z,11.30
2023-03-07T20:46:04.289Z,11.20
2023-03-07T20:48:28.681Z,11.20
2023-03-07T20:50:53.024Z,11.20
2023-03-07T20:53:17.407Z,11.20
2023-03-07T20:55:43.161Z,11.20
2023-03-07T20:58:08.225Z,11.20
2023-03-07T21:00:32.614Z,11.20
2023-03-07T21:03:05.704Z,11.20
2023-03-07T21:05:31.008Z,11.20
2023-03-07T21:07:55.341Z,11.20
2023-03-07T21:10:22.461Z,11.20
2023-03-07T21:12:49.712Z,11.00
2023-03-07T21:15:14.185Z,10.90
2023-03-07T21:17:39.690Z,10.80
2023-03-07T21:20:08.023Z,10.80
2023-03-07T21:22:32.354Z,10.70
2023-03-07T21:24:56.796Z,10.70
2023-03-07T21:27:21.161Z,10.70
2023-03-07T21:29:49.179Z,10.60
2023-03-07T21:32:13.563Z,10.60
2023-03-07T21:34:38.082Z,10.50
2023-03-07T21:37:02.394Z,10.50
2023-03-07T21:39:27.202Z,10.60
2023-03-07T21:41:51.658Z,10.60
2023-03-07T21:44:16.332Z,10.60
2023-03-07T21:46:42.322Z,10.70
2023-03-07T21:49:06.978Z,10.70
2023-03-07T21:51:31.418Z,10.80
2023-03-07T21:53:55.909Z,10.90
2023-03-07T21:56:22.196Z,10.90
2023-03-07T21:58:50.186Z,10.80
2023-03-07T22:01:17.082Z,10.80
2023-03-07T22:03:43.683Z,10.80
2023-03-07T22:06:10.070Z,10.70
2023-03-07T22:08:34.601Z,10.60
2023-03-07T22:11:00.542Z,10.70
2023-03-07T22:13:25.049Z,10.70
2023-03-07T22:15:49.357Z,10.60
2023-03-07T22:18:13.850Z,10.50
2023-03-07T22:20:40.876Z,10.60
2023-03-07T22:23:05.174Z,10.60
2023-03-07T22:25:29.634Z,10.60
2023-03-07T22:27:55.232Z,10.60
2023-03-07T22:30:21.319Z,10.60
2023-03-07T22:32:45.885Z,10.60
2023-03-07T22:35:10.913Z,10.60
2023-03-07T22:37:36.666Z,10.70
2023-03-07T22:40:03.208Z,10.70
2023-03-07T22:42:27.524Z,10.80
2023-03-07T22:44:51.934Z,10.80
2023-03-07T22:47:16.213Z,10.80
2023-03-07T22:49:40.608Z,10.80
2023-03-07T22:52:05.486Z,10.80
2023-03-07T22:54:31.539Z,10.80
2023-03-07T22:56:55.884Z,10.80
2023-03-07T22:59:20.288Z,10.70
2023-03-07T23:01:48.105Z,10.70
2023-03-07T23:04:14.454Z,10.60
2023-03-07T23:06:39.036Z,10.70
2023-03-07T23:09:04.082Z,10.50
2023-03-07T23:11:31.568Z,10.60
2023-03-07T23:13:56.230Z,10.50
2023-03-07T23:16:24.245Z,10.50
2023-03-07T23:18:50.747Z,10.40
2023-03-07T23:21:17.344Z,10.30
2023-03-07T23:23:41.889Z,10.20
2023-03-07T23:26:06.819Z,10.10
2023-03-07T23:28:32.991Z,10.00
2023-03-07T23:30:58.654Z,9.90
2023-03-07T23:33:23.140Z,9.80
2023-03-07T23:35:47.658Z,9.80
2023-03-07T23:38:13.807Z,9.80
2023-03-07T23:40:38.260Z,9.70
2023-03-07T23:43:02.609Z,9.70
2023-03-07T23:45:28.510Z,9.60
2023-03-07T23:47:53.428Z,9.60
2023-03-07T23:50:18.296Z,9.60
2023-03-07T23:52:42.895Z,9.60
2023-03-07T23:55:09.282Z,9.60
2023-03-07T23:57:33.658Z,9.50
2023-03-07T23:59:58.053Z,9.40
